Time;durP1;ratioP1;P1;durP2;ratioP2;P2;SDS_P1;SDS_P2;PMS_P1;PMS_P2;Temp;Humidity;BMP_temperature;BMP_pressure;BME280_temperature;BME280_humidity;BME280_pressure;Samples;Min_cycle;Max_cycle;Signal;HPM_P1;HPM_P2
2021/11/26 00:02:13;;;;;;;7.53;1.38;;;;;;;2.30;100.00;100046.34;5089065;28;20035;-78
2021/11/26 00:04:39;;;;;;;11.23;2.90;;;;;;;2.31;100.00;100037.47;5089455;28;20039;-77
2021/11/26 00:07:04;;;;;;;7.17;1.17;;;;;;;2.37;100.00;100036.97;5088813;28;20345;-78
2021/11/26 00:09:30;;;;;;;10.65;1.85;;;;;;;2.29;100.00;99998.09;5089780;28;20306;-78
2021/11/26 00:11:56;;;;;;;5.85;1.40;;;;;;;2.39;100.00;100006.06;5072004;28;20048;-78
2021/11/26 00:14:27;;;;;;;11.45;1.50;;;;;;;2.28;100.00;99971.88;5089582;28;20319;-78
2021/11/26 00:16:57;;;;;;;8.85;2.30;;;;;;;2.30;100.00;99968.13;5089664;28;20040;-78
2021/11/26 00:19:24;;;;;;;9.88;1.83;;;;;;;2.28;100.00;99964.81;5088597;28;20365;-78
2021/11/26 00:21:50;;;;;;;9.52;1.60;;;;;;;2.36;100.00;99968.59;5089520;28;20035;-78
2021/11/26 00:24:17;;;;;;;7.35;1.95;;;;;;;2.46;100.00;99982.69;5088302;28;20055;-78
2021/11/26 00:26:44;;;;;;;8.40;1.60;;;;;;;2.37;100.00;99950.03;5088784;28;20346;-77
2021/11/26 00:29:10;;;;;;;12.48;2.78;;;;;;;2.42;100.00;99955.75;5074960;28;20368;-77
2021/11/26 00:31:37;;;;;;;10.90;1.50;;;;;;;2.48;100.00;99964.91;5092673;28;20043;-78
2021/11/26 00:34:03;;;;;;;4.53;2.28;;;;;;;2.46;100.00;99954.53;5092683;28;20031;-78
2021/11/26 00:36:28;;;;;;;8.48;2.50;;;;;;;2.39;100.00;99927.03;5093403;28;20044;-78
2021/11/26 00:38:54;;;;;;;8.23;2.60;;;;;;;2.33;100.00;99914.38;5092335;28;20067;-79
2021/11/26 00:41:20;;;;;;;9.68;1.55;;;;;;;2.39;100.00;99913.00;5093083;28;20114;-78
2021/11/26 00:43:45;;;;;;;14.57;2.55;;;;;;;2.35;100.00;99908.97;5091852;28;20031;-78
2021/11/26 00:46:12;;;;;;;7.88;1.35;;;;;;;2.28;100.00;99892.84;5075430;28;20442;-78
2021/11/26 00:48:37;;;;;;;;;;;;;;;2.22;100.00;99885.47;5093640;28;20035;-78
2021/11/26 00:51:03;;;;;;;7.50;1.27;;;;;;;2.11;100.00;99879.31;5075213;28;19998;-78
2021/11/26 00:53:29;;;;;;;5.50;1.52;;;;;;;2.14;100.00;99901.09;5092779;28;20028;-78
2021/11/26 00:55:55;;;;;;;8.52;1.98;;;;;;;2.11;100.00;99905.66;5093180;28;20048;-78
2021/11/26 00:58:20;;;;;;;7.50;1.73;;;;;;;2.13;100.00;99912.56;5093057;28;20124;-78
2021/11/26 01:00:46;;;;;;;17.33;3.47;;;;;;;2.13;100.00;99912.56;5092334;28;20032;-78
2021/11/26 01:03:11;;;;;;;13.43;2.22;;;;;;;2.09;100.00;99915.47;5092787;28;20352;-78
2021/11/26 01:05:37;;;;;;;6.43;2.28;;;;;;;2.02;100.00;99916.94;5093240;28;20040;-78
2021/11/26 01:08:03;;;;;;;9.18;1.98;;;;;;;2.05;100.00;99932.47;5092796;28;20118;-78
2021/11/26 01:10:29;;;;;;;11.68;3.08;;;;;;;2.06;100.00;99934.16;5091913;28;20107;-78
2021/11/26 01:12:55;;;;;;;12.15;2.33;;;;;;;2.01;100.00;99930.22;5091330;28;20044;-78
2021/11/26 01:15:24;;;;;;;13.60;1.88;;;;;;;2.06;100.00;99947.34;5092922;28;20571;-79
2021/11/26 01:17:49;;;;;;;10.48;2.17;;;;;;;2.11;100.00;99957.47;5092746;28;20468;-78
2021/11/26 01:20:18;;;;;;;8.90;2.30;;;;;;;2.20;100.00;99969.03;5092463;28;20032;-77
2021/11/26 01:22:45;;;;;;;8.88;1.95;;;;;;;2.23;100.00;99972.25;5092468;28;20293;-78
2021/11/26 01:25:11;;;;;;;15.18;2.72;;;;;;;2.20;100.00;99961.13;5091213;28;20073;-78
2021/11/26 01:27:37;;;;;;;10.05;2.30;;;;;;;2.20;100.00;99955.84;5092451;28;20365;-78
2021/11/26 01:30:33;;;;;;;11.20;2.88;;;;;;;2.19;100.00;99952.41;5092302;28;20020;-78
2021/11/26 01:32:58;;;;;;;9.75;3.33;;;;;;;2.27;100.00;99962.28;5091575;28;20093;-78
2021/11/26 01:35:24;;;;;;;16.70;2.95;;;;;;;2.24;100.00;99958.09;5090821;28;20039;-78
2021/11/26 01:37:49;;;;;;;9.50;3.22;;;;;;;2.31;100.00;99968.97;5092071;28;20460;-78
2021/11/26 01:40:16;;;;;;;12.50;2.15;;;;;;;2.32;100.00;99968.03;5093114;28;20541;-78
2021/11/26 01:42:43;;;;;;;13.43;2.78;;;;;;;2.35;100.00;99964.28;5092355;28;20047;-78
2021/11/26 01:45:08;;;;;;;;;;;;;;;2.41;100.00;99967.25;5091488;28;20104;-78
2021/11/26 01:47:34;;;;;;;10.57;2.42;;;;;;;2.35;100.00;99959.84;5091344;28;20341;-78
2021/11/26 01:50:01;;;;;;;5.68;2.13;;;;;;;2.49;100.00;99961.34;5091272;28;20032;-78
2021/11/26 01:52:26;;;;;;;11.68;2.63;;;;;;;2.40;100.00;99936.59;5091905;28;20080;-78
2021/11/26 01:54:52;;;;;;;12.20;2.87;;;;;;;2.51;100.00;99962.03;5090845;28;20403;-78
2021/11/26 01:57:19;;;;;;;26.57;3.53;;;;;;;2.39;100.00;99928.81;5091956;28;20269;-78
2021/11/26 01:59:48;;;;;;;14.10;3.15;;;;;;;2.53;100.00;99955.66;5074144;28;20526;-78
2021/11/26 02:02:13;;;;;;;17.25;2.58;;;;;;;2.49;100.00;99941.06;5090891;28;20047;-78
2021/11/26 02:04:39;;;;;;;7.57;2.55;;;;;;;2.52;100.00;99932.91;5090428;28;20032;-78
2021/11/26 02:07:04;;;;;;;16.83;2.95;;;;;;;2.61;100.00;99943.63;5090794;28;20036;-78
2021/11/26 02:09:29;;;;;;;15.90;2.90;;;;;;;2.53;100.00;99925.84;5090743;28;20476;-78
2021/11/26 02:11:55;;;;;;;8.30;2.15;;;;;;;2.65;100.00;99945.06;5091645;28;20100;-78
2021/11/26 02:14:20;;;;;;;13.30;3.97;;;;;;;2.66;100.00;99931.72;5090366;28;20035;-79
2021/11/26 02:16:49;;;;;;;14.20;2.33;;;;;;;2.60;100.00;99916.47;5090740;28;20297;-78
2021/11/26 02:19:15;;;;;;;13.90;3.88;;;;;;;2.52;100.00;99888.09;5090380;28;20051;-78
2021/11/26 02:21:41;;;;;;;13.13;2.20;;;;;;;2.51;100.00;99891.72;5090565;28;20028;-78
2021/11/26 02:24:08;;;;;;;12.57;3.20;;;;;;;2.39;100.00;99861.16;5090209;28;20044;-78
2021/11/26 02:26:36;;;;;;;16.33;4.32;;;;;;;2.56;100.00;99898.41;5091480;28;20028;-78
2021/11/26 02:29:01;;;;;;;5.88;1.63;;;;;;;2.48;100.00;99878.81;5091179;28;20039;-78
2021/11/26 02:31:27;;;;;;;10.82;2.15;;;;;;;2.44;100.00;99880.03;5089280;28;20035;-79
2021/11/26 02:33:52;;;;;;;10.68;2.03;;;;;;;2.58;100.00;99896.47;5089599;28;20036;-78
2021/11/26 02:36:18;;;;;;;15.10;2.17;;;;;;;2.52;100.00;99874.09;5090025;28;20100;-78
2021/11/26 02:38:43;;;;;;;8.80;1.98;;;;;;;2.56;100.00;99874.69;5091053;28;20031;-78
2021/11/26 02:41:09;;;;;;;6.82;1.58;;;;;;;2.51;100.00;99856.63;5090976;28;20032;-78
2021/11/26 02:43:35;;;;;;;8.50;1.77;;;;;;;2.54;100.00;99865.09;5073460;28;20032;-78
2021/11/26 02:46:00;;;;;;;9.95;1.75;;;;;;;2.57;100.00;99850.00;5090934;28;20071;-77
2021/11/26 02:48:26;;;;;;;9.18;1.58;;;;;;;2.60;100.00;99855.84;5091560;28;20048;-78
2021/11/26 02:50:51;;;;;;;6.47;2.10;;;;;;;2.53;100.00;99831.00;5072570;28;20043;-78
2021/11/26 02:53:24;;;;;;;11.93;1.30;;;;;;;2.48;100.00;99831.41;5087711;28;20381;-78
2021/11/26 02:55:51;;;;;;;7.15;1.42;;;;;;;2.49;100.00;99822.50;5071569;28;20040;-78
2021/11/26 02:58:16;;;;;;;13.57;3.72;;;;;;;2.56;100.00;99843.06;5090700;28;20035;-78
2021/11/26 03:00:47;;;;;;;5.57;1.50;;;;;;;2.56;100.00;99835.16;5072920;28;20035;-78
2021/11/26 03:03:13;;;;;;;14.05;2.22;;;;;;;2.60;100.00;99847.09;5090051;28;20032;-78
2021/11/26 03:05:38;;;;;;;8.90;1.45;;;;;;;2.61;100.00;99840.88;5072633;28;20027;-78
2021/11/26 03:08:06;;;;;;;7.28;1.20;;;;;;;2.60;100.00;99837.41;5089849;28;20352;-78
2021/11/26 03:10:33;;;;;;;9.52;2.40;;;;;;;2.59;100.00;99826.97;5089795;28;20057;-78
2021/11/26 03:13:05;;;;;;;10.82;1.25;;;;;;;2.63;100.00;99837.13;5090517;28;20024;-78
2021/11/26 03:15:34;;;;;;;11.77;2.13;;;;;;;2.56;100.00;99819.34;5089206;28;20117;-78
2021/11/26 03:18:00;;;;;;;8.23;1.35;;;;;;;2.69;100.00;99846.28;5089831;28;20036;-78
2021/11/26 03:20:26;;;;;;;10.40;1.83;;;;;;;2.63;100.00;99823.13;5090553;28;20882;-78
2021/11/26 03:22:52;;;;;;;14.20;1.98;;;;;;;2.66;100.00;99821.03;5089474;28;20435;-78
2021/11/26 03:25:18;;;;;;;9.18;1.50;;;;;;;2.63;100.00;99809.94;5090143;28;20034;-78
2021/11/26 03:27:44;;;;;;;11.15;2.35;;;;;;;2.66;100.00;99805.22;5072626;28;20476;-78
2021/11/26 03:30:12;;;;;;;9.48;1.67;;;;;;;2.62;100.00;99797.72;5072655;28;20020;-78
2021/11/26 03:32:38;;;;;;;6.72;1.38;;;;;;;2.73;100.00;99818.69;5072632;28;20039;-78
2021/11/26 03:35:05;;;;;;;7.25;2.17;;;;;;;2.61;100.00;99785.53;5090006;28;20052;-78
2021/11/26 03:37:31;;;;;;;14.93;3.05;;;;;;;2.56;100.00;99782.47;5072365;28;20059;-78
2021/11/26 03:39:56;;;;;;;9.30;2.20;;;;;;;2.56;100.00;99793.81;5089517;28;20036;-79
2021/11/26 03:42:22;;;;;;;8.82;1.83;;;;;;;2.50;100.00;99787.28;5090207;28;20371;-78
2021/11/26 03:44:47;;;;;;;12.17;1.77;;;;;;;2.66;100.00;99814.94;5089939;28;20020;-78
2021/11/26 03:47:13;;;;;;;20.42;3.33;;;;;;;2.56;100.00;99795.63;5089231;28;20036;-78
2021/11/26 03:49:39;;;;;;;9.40;1.80;;;;;;;2.59;100.00;99806.72;5072163;28;20238;-78
2021/11/26 03:52:05;;;;;;;10.40;1.95;;;;;;;2.58;100.00;99812.16;5088857;28;20036;-78
2021/11/26 03:54:30;;;;;;;9.25;2.45;;;;;;;2.50;100.00;99792.53;5088227;28;20043;-78
2021/11/26 03:56:56;;;;;;;8.90;2.07;;;;;;;2.55;100.00;99797.41;5089098;28;20024;-78
2021/11/26 03:59:21;;;;;;;15.45;3.63;;;;;;;2.57;100.00;99798.13;5089055;28;20105;-78
2021/11/26 04:01:47;;;;;;;9.35;2.30;;;;;;;2.50;100.00;99783.81;5089051;28;20064;-78
2021/11/26 04:04:12;;;;;;;9.57;2.77;;;;;;;2.52;100.00;99782.72;5092068;28;20085;-78
2021/11/26 04:06:37;;;;;;;8.47;3.53;;;;;;;2.50;100.00;99779.38;5094128;28;20277;-79
2021/11/26 04:09:03;;;;;;;8.90;2.53;;;;;;;2.52;100.00;99771.34;5093164;28;20036;-78
2021/11/26 04:11:31;;;;;;;5.82;2.22;;;;;;;2.58;100.00;99770.81;5094108;28;20314;-78
2021/11/26 04:13:57;;;;;;;8.75;2.58;;;;;;;2.44;100.00;99727.25;5092665;28;20069;-78
2021/11/26 04:16:22;;;;;;;7.27;2.27;;;;;;;2.52;100.00;99730.00;5093206;28;20036;-78
2021/11/26 04:18:48;;;;;;;7.50;1.92;;;;;;;2.57;100.00;99739.31;5093851;28;20047;-78
2021/11/26 04:21:14;;;;;;;9.55;3.10;;;;;;;2.49;100.00;99714.47;5092997;28;20441;-78
2021/11/26 04:23:40;;;;;;;7.35;2.35;;;;;;;2.46;100.00;99700.75;5092538;28;20028;-78
2021/11/26 04:26:05;;;;;;;4.97;1.70;;;;;;;2.49;100.00;99703.94;5075948;28;20044;-78
2021/11/26 04:28:31;;;;;;;6.45;1.95;;;;;;;2.48;100.00;99702.28;5092826;28;20040;-78
2021/11/26 04:30:59;;;;;;;9.20;1.73;;;;;;;2.56;100.00;99712.13;5075871;28;20101;-78
2021/11/26 04:33:26;;;;;;;3.80;1.65;;;;;;;2.51;100.00;99701.19;5092520;28;20410;-78
2021/11/26 04:35:51;;;;;;;7.47;2.13;;;;;;;2.46;100.00;99682.31;5093273;28;20085;-78
2021/11/26 04:38:17;;;;;;;7.00;1.90;;;;;;;2.46;100.00;99674.41;5092710;28;20044;-79
2021/11/26 04:40:43;;;;;;;6.70;1.95;;;;;;;2.55;100.00;99681.47;5092615;28;20077;-78
2021/11/26 04:43:09;;;;;;;;;;;;;;;2.45;100.00;99662.19;5093972;28;20423;-78
2021/11/26 04:45:35;;;;;;;5.82;2.28;;;;;;;2.40;100.00;99659.16;5075322;28;19998;-78
2021/11/26 04:48:00;;;;;;;13.88;2.67;;;;;;;2.32;100.00;99638.75;5092329;28;20652;-78
2021/11/26 04:50:26;;;;;;;7.28;3.20;;;;;;;2.29;100.00;99641.66;5092092;28;20127;-78
2021/11/26 04:52:53;;;;;;;5.50;2.00;;;;;;;2.32;100.00;99654.56;5092086;28;20067;-78
2021/11/26 04:55:19;;;;;;;5.93;2.00;;;;;;;2.30;100.00;99652.06;5091558;28;20290;-78
2021/11/26 04:57:44;;;;;;;10.57;2.13;;;;;;;2.37;100.00;99668.16;5093153;28;20081;-78
2021/11/26 05:00:14;;;;;;;7.75;2.40;;;;;;;2.39;100.00;99679.41;5092349;28;20040;-79
2021/11/26 05:02:40;;;;;;;9.35;2.63;;;;;;;2.34;100.00;99668.41;5092228;28;20704;-78
2021/11/26 05:05:06;;;;;;;8.95;2.63;;;;;;;2.37;100.00;99673.44;5092828;28;20153;-79
2021/11/26 05:07:31;;;;;;;8.57;2.33;;;;;;;2.43;100.00;99685.22;5075164;28;20039;-78
2021/11/26 05:09:59;;;;;;;10.40;2.90;;;;;;;2.43;100.00;99677.31;5075128;28;20047;-78
2021/11/26 05:12:29;;;;;;;7.40;2.80;;;;;;;2.48;100.00;99668.03;5092164;28;20129;-78
2021/11/26 05:14:55;;;;;;;8.50;2.75;;;;;;;2.46;100.00;99659.44;5092125;28;20468;-79
2021/11/26 05:17:20;;;;;;;5.97;3.10;;;;;;;2.48;100.00;99652.22;5092262;28;20110;-79
2021/11/26 05:19:46;;;;;;;8.13;3.13;;;;;;;2.44;100.00;99634.19;5091818;28;20453;-78
2021/11/26 05:22:11;;;;;;;6.43;3.27;;;;;;;2.48;100.00;99636.44;5092499;28;20735;-78
2021/11/26 05:24:37;;;;;;;10.07;3.70;;;;;;;2.37;100.00;99604.94;5091625;28;20277;-78
2021/11/26 05:27:03;;;;;;;7.47;3.25;;;;;;;2.43;100.00;99625.44;5074797;28;20075;-79
2021/11/26 05:29:28;;;;;;;11.43;3.80;;;;;;;2.44;100.00;99632.41;5091529;28;20040;-78
2021/11/26 05:31:53;;;;;;;10.73;3.20;;;;;;;2.38;100.00;99614.50;5074823;28;20036;-78
2021/11/26 05:34:19;;;;;;;4.93;3.03;;;;;;;2.48;100.00;99628.53;5074405;28;20290;-78
2021/11/26 05:36:44;;;;;;;7.88;3.30;;;;;;;2.48;100.00;99625.88;5092366;28;20211;-78
2021/11/26 05:39:10;;;;;;;7.17;3.53;;;;;;;2.47;100.00;99621.56;5074578;28;20123;-78
2021/11/26 05:41:35;;;;;;;4.63;2.63;;;;;;;2.46;100.00;99613.81;5092507;28;20164;-78
2021/11/26 05:44:01;;;;;;;4.87;2.87;;;;;;;2.49;100.00;99618.81;5091962;28;20027;-78
2021/11/26 05:46:26;;;;;;;7.05;2.95;;;;;;;2.46;100.00;99601.47;5092199;28;20032;-79
2021/11/26 05:48:54;;;;;;;8.73;2.92;;;;;;;2.51;100.00;99615.06;5091509;28;20050;-79
2021/11/26 05:51:19;;;;;;;5.10;3.15;;;;;;;2.51;100.00;99590.53;5091482;28;20377;-79
2021/11/26 05:53:45;;;;;;;6.28;2.38;;;;;;;2.48;100.00;99590.78;5090548;28;20039;-79
2021/11/26 05:56:11;;;;;;;6.78;2.95;;;;;;;2.45;100.00;99570.81;5091934;28;20374;-78
2021/11/26 05:58:36;;;;;;;7.03;2.72;;;;;;;2.48;100.00;99575.81;5091201;28;20107;-79
2021/11/26 06:01:02;;;;;;;7.57;3.28;;;;;;;2.52;100.00;99577.19;5091964;28;20043;-79
2021/11/26 06:03:28;;;;;;;5.60;3.25;;;;;;;2.47;100.00;99574.16;5091039;28;20028;-79
2021/11/26 06:05:53;;;;;;;9.80;3.25;;;;;;;2.44;100.00;99577.06;5091657;28;20036;-78
2021/11/26 06:08:19;;;;;;;6.17;2.97;;;;;;;2.40;100.00;99561.69;5091787;28;20035;-78
2021/11/26 06:10:44;;;;;;;12.85;3.42;;;;;;;2.45;100.00;99576.09;5091018;28;20032;-77
2021/11/26 06:13:10;;;;;;;9.50;3.67;;;;;;;2.35;100.00;99558.63;5090865;28;20044;-76
2021/11/26 06:15:35;;;;;;;11.52;3.47;;;;;;;2.46;100.00;99579.56;5090980;28;20048;-76
2021/11/26 06:18:01;;;;;;;8.20;3.63;;;;;;;2.42;100.00;99562.38;5090952;28;20070;-76
2021/11/26 06:20:27;;;;;;;8.40;3.25;;;;;;;2.40;100.00;99569.59;5091548;28;20032;-76
2021/11/26 06:22:53;;;;;;;12.38;3.45;;;;;;;2.39;100.00;99571.38;5090652;28;20105;-76
2021/11/26 06:25:20;;;;;;;4.78;2.75;;;;;;;2.46;100.00;99585.66;5072659;28;20357;-76
2021/11/26 06:27:47;;;;;;;10.60;3.47;;;;;;;2.40;100.00;99567.78;5092039;28;20036;-76
2021/11/26 06:30:14;;;;;;;10.90;4.15;;;;;;;2.45;100.00;99575.25;5090861;28;20038;-78
2021/11/26 06:32:41;;;;;;;9.18;3.10;;;;;;;2.50;100.00;99589.66;5091389;28;20032;-78
2021/11/26 06:35:08;;;;;;;10.57;4.03;;;;;;;2.51;100.00;99591.34;5073059;28;20073;-78
2021/11/26 06:37:34;;;;;;;5.53;3.42;;;;;;;2.41;100.00;99573.88;5090151;28;20602;-78
2021/11/26 06:39:59;;;;;;;13.98;5.60;;;;;;;2.46;100.00;99583.03;5091661;28;20040;-78
2021/11/26 06:42:25;;;;;;;8.80;4.38;;;;;;;2.46;100.00;99588.31;5090540;28;20035;-79
2021/11/26 06:44:52;;;;;;;11.48;5.35;;;;;;;2.42;100.00;99575.53;5091049;28;20035;-76
2021/11/26 06:47:18;;;;;;;12.07;4.95;;;;;;;2.45;100.00;99580.53;5091456;28;20035;-77
2021/11/26 06:49:44;;;;;;;8.88;5.13;;;;;;;2.41;100.00;99574.72;5090525;28;20024;-76
2021/11/26 06:52:09;;;;;;;10.45;4.80;;;;;;;2.47;100.00;99594.41;5090380;28;20050;-76
2021/11/26 06:54:35;;;;;;;16.90;5.87;;;;;;;2.52;100.00;99606.16;5089976;28;20040;-77
2021/11/26 06:57:00;;;;;;;16.65;7.82;;;;;;;2.49;100.00;99598.56;5090506;28;20289;-77
2021/11/26 06:59:26;;;;;;;11.85;5.30;;;;;;;2.52;100.00;99600.06;5090488;28;20042;-76
2021/11/26 07:01:51;;;;;;;17.73;6.57;;;;;;;2.50;100.00;99604.66;5090394;28;20030;-76
2021/11/26 07:04:17;;;;;;;16.73;7.43;;;;;;;2.58;100.00;99620.63;5072273;28;20084;-76
2021/11/26 07:06:42;;;;;;;14.50;7.40;;;;;;;2.47;100.00;99600.50;5072937;28;20071;-77
2021/11/26 07:09:08;;;;;;;23.50;7.40;;;;;;;2.55;100.00;99623.50;5089808;28;20040;-78
2021/11/26 07:11:34;;;;;;;13.05;7.28;;;;;;;2.46;100.00;99606.75;5090171;28;20370;-79
2021/11/26 07:14:00;;;;;;;18.58;8.15;;;;;;;2.48;100.00;99610.06;5073115;28;20044;-79
2021/11/26 07:16:25;;;;;;;15.65;8.88;;;;;;;2.49;100.00;99603.00;5089691;28;20043;-78
2021/11/26 07:18:51;;;;;;;18.58;8.55;;;;;;;2.54;100.00;99609.50;5090743;28;20032;-78
2021/11/26 07:21:16;;;;;;;20.50;8.77;;;;;;;2.58;100.00;99612.72;5072742;28;20426;-76
2021/11/26 07:23:42;;;;;;;17.02;9.82;;;;;;;2.44;100.00;99574.44;5090721;28;20278;-76
2021/11/26 07:26:07;;;;;;;22.17;9.67;;;;;;;2.56;100.00;99598.00;5073087;28;20448;-77
2021/11/26 07:28:33;;;;;;;24.65;10.35;;;;;;;2.50;100.00;99580.94;5090660;28;20031;-76
2021/11/26 07:30:58;;;;;;;21.67;10.20;;;;;;;2.59;100.00;99593.28;5090052;28;20027;-76
2021/11/26 07:33:24;;;;;;;18.77;11.05;;;;;;;2.54;100.00;99577.88;5089449;28;20105;-76
2021/11/26 07:35:50;;;;;;;21.30;10.68;;;;;;;2.57;100.00;99597.84;5089467;28;20031;-76
2021/11/26 07:38:15;;;;;;;19.25;10.18;;;;;;;2.59;100.00;99598.56;5090795;28;20035;-76
2021/11/26 07:40:41;;;;;;;25.55;12.57;;;;;;;2.45;100.00;99576.09;5072453;28;20035;-76
2021/11/26 07:43:07;;;;;;;21.42;10.45;;;;;;;2.44;100.00;99574.44;5089303;28;20038;-76
2021/11/26 07:45:34;;;;;;;21.98;10.93;;;;;;;2.43;100.00;99571.94;5088944;28;20055;-76
2021/11/26 07:48:00;;;;;;;25.45;11.32;;;;;;;2.37;100.00;99570.69;5072183;28;20043;-76
2021/11/26 07:50:25;;;;;;;21.10;12.10;;;;;;;2.40;100.00;99580.13;5089360;28;20040;-76
2021/11/26 07:52:51;;;;;;;28.85;12.45;;;;;;;2.32;100.00;99567.66;5090352;28;20402;-76
2021/11/26 07:55:16;;;;;;;26.27;12.93;;;;;;;2.37;100.00;99591.75;5071966;28;20035;-76
2021/11/26 07:57:42;;;;;;;28.23;13.13;;;;;;;2.38;100.00;99585.50;5090203;28;20427;-75
2021/11/26 08:00:10;;;;;;;28.50;13.13;;;;;;;2.38;100.00;99580.25;5089542;28;20355;-77
2021/11/26 08:02:39;;;;;;;25.38;14.85;;;;;;;2.37;100.00;99572.50;5089632;28;20051;-77
2021/11/26 08:05:05;;;;;;;31.67;14.47;;;;;;;2.36;100.00;99569.00;5073122;28;20027;-77
2021/11/26 08:07:31;;;;;;;;;;;;;;;2.48;100.00;99594.28;5090250;28;20461;-77
2021/11/26 08:09:56;;;;;;;28.55;12.02;;;;;;;2.39;100.00;99563.50;5090465;28;19962;-77
2021/11/26 08:12:22;;;;;;;23.70;11.33;;;;;;;2.25;100.00;99534.94;5090218;28;20077;-76
2021/11/26 08:14:50;;;;;;;25.33;11.93;;;;;;;2.29;100.00;99528.41;5072468;28;20685;-77
2021/11/26 08:17:16;;;;;;;25.17;11.15;;;;;;;2.38;100.00;99539.91;5072217;28;20100;-79
2021/11/26 08:19:42;;;;;;;21.02;10.57;;;;;;;2.44;100.00;99542.81;5089073;28;20032;-76
2021/11/26 08:22:07;;;;;;;22.15;11.15;;;;;;;2.46;100.00;99532.97;5088690;28;20039;-76
2021/11/26 08:24:33;;;;;;;23.83;10.40;;;;;;;2.52;100.00;99535.03;5088677;28;20032;-76
2021/11/26 08:26:59;;;;;;;28.30;12.93;;;;;;;2.51;100.00;99514.94;5090145;28;20063;-77
2021/11/26 08:29:24;;;;;;;26.45;12.32;;;;;;;2.51;100.00;99507.03;5088907;28;20469;-76
2021/11/26 08:31:51;;;;;;;25.93;12.37;;;;;;;2.57;100.00;99502.16;5089089;28;20047;-76
2021/11/26 08:34:16;;;;;;;;;;;;;;;2.41;100.00;99484.28;5089265;28;20156;-76
2021/11/26 08:36:42;;;;;;;31.52;14.85;;;;;;;2.44;100.00;99478.78;5088937;28;19916;-76
2021/11/26 08:39:08;;;;;;;29.33;15.80;;;;;;;2.37;100.00;99486.41;5089008;28;20039;-76
2021/11/26 08:41:34;;;;;;;38.03;17.48;;;;;;;2.40;100.00;99491.38;5090017;28;20028;-76
2021/11/26 08:44:00;;;;;;;33.40;16.90;;;;;;;2.46;100.00;99513.72;5089712;28;20548;-76
2021/11/26 08:46:26;;;;;;;43.42;19.35;;;;;;;2.43;100.00;99513.97;5088738;28;20038;-76
2021/11/26 08:48:52;;;;;;;41.22;19.38;;;;;;;2.41;100.00;99515.91;5089151;28;20408;-76
2021/11/26 08:51:19;;;;;;;39.58;18.83;;;;;;;2.47;100.00;99526.72;5092466;28;20040;-78
2021/11/26 08:53:46;;;;;;;43.08;19.98;;;;;;;2.36;100.00;99512.88;5091329;28;20601;-78
2021/11/26 08:56:13;;;;;;;49.85;20.25;;;;;;;2.43;100.00;99530.59;5092556;28;20046;-76
2021/11/26 08:58:40;;;;;;;42.78;19.67;;;;;;;2.38;100.00;99521.47;5075678;28;20418;-76
2021/11/26 09:01:07;;;;;;;39.15;18.95;;;;;;;2.35;100.00;99506.78;5092444;28;20534;-76
2021/11/26 09:03:33;;;;;;;38.85;18.05;;;;;;;2.35;100.00;99506.78;5092950;28;20020;-78
2021/11/26 09:05:59;;;;;;;41.63;19.63;;;;;;;2.47;100.00;99526.72;5092642;28;20043;-78
2021/11/26 09:08:25;;;;;;;50.67;21.83;;;;;;;2.43;100.00;99522.69;5092385;28;20058;-76
2021/11/26 09:10:51;;;;;;;45.78;18.98;;;;;;;2.40;100.00;99509.00;5093222;28;20461;-76
2021/11/26 09:13:17;;;;;;;47.60;20.15;;;;;;;2.35;100.00;99495.41;5092369;28;20042;-76
2021/11/26 09:15:43;;;;;;;47.15;19.90;;;;;;;2.42;100.00;99515.78;5092445;28;20036;-76
2021/11/26 09:18:11;;;;;;;50.72;23.00;;;;;;;2.45;100.00;99519.94;5093285;28;20032;-76
2021/11/26 09:20:39;;;;;;;51.92;21.92;;;;;;;2.61;100.00;99537.81;5093035;28;20035;-76
2021/11/26 09:23:08;;;;;;;50.53;22.45;;;;;;;2.48;100.00;99507.31;5092660;28;20051;-76
2021/11/26 09:25:34;;;;;;;56.38;22.58;;;;;;;2.56;100.00;99514.53;5093203;28;20042;-76
2021/11/26 09:27:59;;;;;;;54.42;22.25;;;;;;;2.53;100.00;99493.72;5092645;28;20040;-79
2021/11/26 09:30:27;;;;;;;49.13;22.02;;;;;;;2.57;100.00;99499.53;5075400;28;20112;-80
2021/11/26 09:32:53;;;;;;;55.05;22.00;;;;;;;2.49;100.00;99477.34;5092561;28;20039;-79
2021/11/26 09:35:19;;;;;;;;;;;;;;;2.63;100.00;99494.53;5093418;28;20040;-77
2021/11/26 09:37:45;;;;;;;41.90;17.65;;;;;;;2.66;100.00;99488.16;5075425;28;19920;-77
2021/11/26 09:40:12;;;;;;;43.20;18.13;;;;;;;2.64;100.00;99469.00;5092573;28;20047;-77
2021/11/26 09:42:42;;;;;;;42.05;18.85;;;;;;;2.69;100.00;99464.13;5092681;28;20028;-77
2021/11/26 09:45:09;;;;;;;47.88;19.00;;;;;;;2.72;100.00;99445.41;5092164;28;20039;-78
2021/11/26 09:47:34;;;;;;;39.25;16.25;;;;;;;2.82;100.00;99443.56;5093932;28;20071;-78
2021/11/26 09:50:00;;;;;;;34.28;16.95;;;;;;;2.92;100.00;99427.69;5093136;28;20453;-78
2021/11/26 09:52:25;;;;;;;41.22;15.48;;;;;;;2.82;100.00;99398.75;5092287;28;20054;-77
2021/11/26 09:54:51;;;;;;;32.20;15.20;;;;;;;2.91;100.00;99402.31;5092218;28;20031;-78
2021/11/26 09:57:16;;;;;;;32.65;15.20;;;;;;;2.82;100.00;99366.28;5075507;28;20044;-78
2021/11/26 09:59:45;;;;;;;32.35;14.10;;;;;;;2.94;100.00;99381.75;5091707;28;20042;-78
2021/11/26 10:02:17;;;;;;;33.22;15.30;;;;;;;2.99;100.00;99372.59;5091873;28;20118;-77
2021/11/26 10:04:43;;;;;;;33.78;14.15;;;;;;;3.00;100.00;99348.72;5075292;28;20028;-77
2021/11/26 10:07:09;;;;;;;28.95;12.20;;;;;;;3.02;100.00;99330.09;5092214;28;20024;-78
2021/11/26 10:09:37;;;;;;;29.60;13.70;;;;;;;3.05;100.00;99333.28;5093083;28;20063;-78
2021/11/26 10:12:13;;;;;;;30.20;12.30;;;;;;;3.15;100.00;99330.56;5092829;28;20067;-77
2021/11/26 10:14:40;;;;;;;;;;;;;;;3.25;100.00;99325.22;5091439;28;20126;-77
2021/11/26 10:17:13;;;;;;;29.00;12.77;;;;;;;3.01;100.00;99275.72;5074073;28;19927;-77
2021/11/26 10:19:42;;;;;;;28.65;12.20;;;;;;;3.18;100.00;99295.97;5092149;28;20071;-78
2021/11/26 10:22:24;;;;;;;25.63;11.63;;;;;;;3.29;100.00;99294.94;5092476;28;20039;-77
2021/11/26 10:25:11;;;;;;;28.15;13.20;;;;;;;3.25;100.00;99280.38;5091174;28;20040;-76
2021/11/26 10:27:44;;;;;;;29.00;13.15;;;;;;;3.26;100.00;99276.78;5091081;28;20067;-77
2021/11/26 10:30:19;;;;;;;33.33;14.48;;;;;;;2.99;100.00;99219.66;5091396;28;20571;-78
2021/11/26 10:32:57;;;;;;;29.67;15.20;;;;;;;3.04;100.00;99247.22;5092015;28;20039;-77
2021/11/26 10:35:30;;;;;;;40.35;15.20;;;;;;;2.90;100.00;99224.03;5090404;28;20035;-79
2021/11/26 10:38:04;;;;;;;37.13;18.20;;;;;;;2.88;100.00;99240.00;5090651;28;20032;-76
2021/11/26 10:40:32;;;;;;;36.95;17.30;;;;;;;3.01;100.00;99271.25;5092058;28;20368;-76
2021/11/26 10:43:00;;;;;;;35.13;16.85;;;;;;;3.06;100.00;99287.47;5090711;28;20362;-77
2021/11/26 10:45:35;;;;;;;44.42;18.80;;;;;;;3.06;100.00;99287.47;5090390;28;20513;-77
2021/11/26 10:48:20;;;;;;;48.17;19.42;;;;;;;2.89;100.00;99254.00;5090776;28;20044;-76
2021/11/26 10:51:18;;;;;;;41.23;19.27;;;;;;;3.00;100.00;99282.81;5090626;28;20529;-77
2021/11/26 10:59:27;;;;;;;40.47;17.88;;;;;;;3.09;100.00;99276.63;5090650;28;20082;-78
2021/11/26 11:01:52;;;;;;;39.75;17.55;;;;;;;3.09;100.00;99270.50;5090659;28;20464;-78
2021/11/26 11:04:21;;;;;;;41.13;16.73;;;;;;;3.07;100.00;99270.69;5090787;28;20044;-78
2021/11/26 11:06:56;;;;;;;38.08;16.73;;;;;;;3.13;100.00;99277.97;5074130;28;20475;-78
2021/11/26 11:09:21;;;;;;;42.42;18.70;;;;;;;3.12;100.00;99263.13;5074144;28;20046;-78
2021/11/26 11:11:52;;;;;;;38.47;16.47;;;;;;;3.09;100.00;99252.91;5090846;28;20110;-78
2021/11/26 11:14:24;;;;;;;36.65;17.27;;;;;;;3.17;100.00;99254.78;5091627;28;20028;-78
2021/11/26 11:16:54;;;;;;;33.22;15.05;;;;;;;3.08;100.00;99235.41;5091697;28;20528;-79
2021/11/26 11:19:21;;;;;;;30.58;13.48;;;;;;;3.20;100.00;99254.47;5090317;28;20122;-78
2021/11/26 11:21:48;;;;;;;28.02;14.25;;;;;;;3.14;100.00;99226.06;5073752;28;20035;-79
2021/11/26 11:24:16;;;;;;;28.67;14.35;;;;;;;3.15;100.00;99206.63;5091642;28;20092;-80
2021/11/26 11:26:47;;;;;;;26.17;12.77;;;;;;;3.08;100.00;99176.56;5091713;28;20020;-80
2021/11/26 11:29:20;;;;;;;26.17;13.05;;;;;;;3.18;100.00;99190.47;5090297;28;20039;-80
2021/11/26 11:31:46;;;;;;;28.60;13.10;;;;;;;3.17;100.00;99175.66;5074183;28;20032;-79